Terminal Aerodrome Forecast
Issued by NWS

Home | Current Version | Previous Version | Text Only | Print | Product List | Glossary On
Versions: 1 2 3 4 5 6 7 8 9 10 11 12 13 14 15 16 17 18 19 20 21 22 23 24 25 26
000
FTUS44 KOUN 221756
TAFCSM
TAF
KCSM 221756Z 2218/2318 13010KT P6SM OVC005
     FM230000 14012KT 2SM BR OVC004
     FM230800 16012KT 2SM BR OVC004 PROB30 2308/2312 2SM TSRA BR
      OVC004CB
     FM231200 16014KT 3SM -RA BR OVC007
      TEMPO 2312/2315 2SM TSRA BR BKN007CB=

USA.gov is the U.S. government's official web portal to all federal, state and local government web resources and services.